Time;durP1;ratioP1;P1;durP2;ratioP2;P2;SDS_P1;SDS_P2;PMS_P1;PMS_P2;Temp;Humidity;BMP_temperature;BMP_pressure;BME280_temperature;BME280_humidity;BME280_pressure;Samples;Min_cycle;Max_cycle;Signal;HPM_P1;HPM_P2
2021/07/12 00:00:21;;;;;;;28.05;24.40;;;20.20;99.90;;;20.55;72.87;101348.44;4995583;28;20503;-71
2021/07/12 00:02:50;;;;;;;30.38;26.90;;;20.10;99.90;;;20.50;72.88;101347.72;4995839;28;20049;-71
2021/07/12 00:05:19;;;;;;;32.20;25.70;;;20.10;99.90;;;20.45;72.81;101344.31;4995398;28;20046;-71
2021/07/12 00:07:50;;;;;;;29.30;26.15;;;20.00;99.90;;;20.60;73.03;101357.19;4995559;28;20101;-71
2021/07/12 00:10:21;;;;;;;;;;;20.10;99.90;;;20.55;72.98;101340.38;4996151;28;20101;-71
2021/07/12 00:12:51;;;;;;;33.70;29.02;;;20.20;99.90;;;20.56;72.63;101336.72;4995622;28;19921;-71
2021/07/12 00:15:22;;;;;;;35.55;30.10;;;20.10;99.90;;;20.48;72.54;101321.81;4995826;28;20097;-71
2021/07/12 00:17:51;;;;;;;;;;;20.20;99.90;;;20.51;72.20;101305.59;4995952;28;20057;-71
2021/07/12 00:20:20;;;;;;;43.05;35.10;;;20.30;99.90;;;20.32;71.95;101266.91;4994336;28;19937;-71
2021/07/12 00:22:52;;;;;;;41.20;35.05;;;20.30;99.90;;;20.62;71.80;101308.72;4995339;28;20050;-71
2021/07/12 00:25:22;;;;;;;43.00;34.17;;;20.30;99.90;;;20.58;71.87;101296.34;4995163;28;20097;-72
2021/07/12 00:27:51;;;;;;;40.55;36.22;;;20.40;99.90;;;20.76;71.89;101321.63;4995327;28;20070;-71
2021/07/12 00:30:21;;;;;;;41.97;35.53;;;20.40;99.90;;;20.82;71.76;101327.66;5010238;28;20061;-71
2021/07/12 00:32:50;;;;;;;;;;;20.40;99.90;;;20.81;71.79;101317.81;4995648;28;20050;-71
2021/07/12 00:35:20;;;;;;;45.90;38.30;;;20.50;99.90;;;20.86;71.61;101333.78;4994875;28;19930;-71
2021/07/12 00:37:49;;;;;;;47.65;38.65;;;20.60;99.90;;;20.92;71.47;101322.78;4993849;28;20049;-71
2021/07/12 00:40:20;;;;;;;42.53;36.90;;;20.60;99.90;;;20.93;71.36;101309.28;4995096;28;20038;-72
2021/07/12 00:42:49;;;;;;;;;;;20.60;99.90;;;20.97;71.22;101315.41;4994250;28;20303;-72
2021/07/12 00:45:21;;;;;;;46.58;39.35;;;20.70;99.90;;;20.95;71.32;101319.97;4994924;28;19921;-71
2021/07/12 00:47:52;;;;;;;46.70;37.45;;;20.70;99.90;;;20.98;71.37;101322.56;4995109;28;20484;-71
2021/07/12 00:50:22;;;;;;;48.67;39.17;;;20.70;99.90;;;20.94;71.46;101312.84;4994580;28;20495;-71
2021/07/12 00:52:54;;;;;;;51.65;42.30;;;20.60;99.90;;;20.92;71.61;101303.97;4993602;28;20058;-71
2021/07/12 00:55:28;;;;;;;48.80;40.13;;;20.60;99.90;;;20.97;71.75;101296.56;4994723;28;20054;-71
2021/07/12 00:58:00;;;;;;;51.88;41.97;;;20.70;99.90;;;20.81;71.96;101276.63;4993520;28;20543;-71
2021/07/12 01:00:30;;;;;;;50.10;40.47;;;20.60;99.90;;;20.95;72.35;101299.34;5009840;28;20063;-71
2021/07/12 01:02:58;;;;;;;55.75;43.03;;;20.60;99.90;;;20.90;72.59;101282.53;5009837;28;20058;-71
2021/07/12 01:05:31;;;;;;;55.22;42.47;;;20.60;99.90;;;20.89;72.93;101290.63;4993028;28;20050;-71
2021/07/12 01:08:02;;;;;;;55.28;42.90;;;20.60;99.90;;;20.80;73.21;101275.75;4994270;28;20408;-72
2021/07/12 01:10:36;;;;;;;57.75;46.22;;;20.60;99.90;;;20.82;73.43;101270.31;5009561;28;20054;-72
2021/07/12 01:13:24;;;;;;;59.30;47.28;;;20.60;99.90;;;20.81;73.69;101282.00;4994490;28;20046;-71
2021/07/12 01:16:02;;;;;;;60.63;47.13;;;20.50;99.90;;;20.77;74.08;101291.13;4992922;28;20047;-71
2021/07/12 01:18:44;;;;;;;60.00;46.58;;;20.50;99.90;;;20.78;74.28;101287.50;5009530;28;20054;-71
2021/07/12 01:22:25;;;;;;;59.22;46.28;;;20.50;99.90;;;20.85;74.44;101289.88;4994316;28;20054;-72
2021/07/12 01:25:28;;;;;;;;;;;20.50;99.90;;;20.83;74.65;101281.00;4934496;29;20409;-71
2021/07/12 01:28:46;;;;;;;63.33;48.50;;;20.60;99.90;;;20.92;74.73;101287.81;4934077;29;19927;-72
2021/07/12 01:32:26;;;;;;;61.95;46.15;;;20.60;99.90;;;20.96;74.63;101286.78;4992683;28;20050;-71
2021/07/12 01:35:03;;;;;;;61.33;47.47;;;20.60;99.90;;;20.94;74.73;101283.25;5009235;28;20050;-72
2021/07/12 01:37:47;;;;;;;62.58;49.70;;;20.60;99.90;;;20.98;74.88;101287.59;4992890;28;20050;-71
2021/07/12 01:40:26;;;;;;;64.43;48.60;;;20.60;99.90;;;20.95;74.86;101277.81;5008906;28;20077;-72
2021/07/12 01:43:14;;;;;;;63.67;49.40;;;20.60;99.90;;;21.00;75.07;101273.13;5009174;28;20042;-71
2021/07/12 01:45:59;;;;;;;63.38;49.45;;;20.70;99.90;;;21.00;75.03;101272.25;4993045;28;20443;-72
2021/07/12 01:48:42;;;;;;;69.35;50.83;;;20.70;99.90;;;20.93;75.14;101263.56;5009058;28;20511;-71
2021/07/12 01:51:16;;;;;;;65.43;51.15;;;20.70;99.90;;;20.97;75.39;101265.19;4992697;28;20050;-72
2021/07/12 01:53:54;;;;;;;66.57;50.00;;;20.70;99.90;;;20.99;75.50;101274.06;4993973;28;20049;-72
2021/07/12 01:56:31;;;;;;;68.20;52.55;;;20.70;99.90;;;21.01;75.52;101265.97;4992790;28;20039;-72
2021/07/12 01:59:06;;;;;;;70.20;52.90;;;20.70;99.90;;;20.93;75.46;101266.25;5008974;28;20121;-71
2021/07/12 02:01:39;;;;;;;66.35;50.80;;;20.70;99.90;;;20.95;75.64;101268.88;4992892;28;20408;-72
2021/07/12 02:04:14;;;;;;;68.15;49.60;;;20.70;99.90;;;20.97;75.59;101272.38;4992877;28;20050;-72
2021/07/12 02:06:44;;;;;;;64.22;50.35;;;20.60;99.90;;;21.00;75.51;101272.25;4993838;28;20054;-71
2021/07/12 02:09:16;;;;;;;68.40;50.90;;;20.70;99.90;;;20.99;75.53;101271.38;5008933;28;20403;-71
2021/07/12 02:11:53;;;;;;;60.80;48.83;;;20.70;99.90;;;21.02;75.26;101268.59;5009192;28;20043;-71
2021/07/12 02:14:24;;;;;;;65.03;49.47;;;20.70;99.90;;;20.96;75.34;101255.38;4993779;28;20050;-71
2021/07/12 02:16:57;;;;;;;64.88;49.15;;;20.70;99.90;;;20.65;75.40;101191.19;4992570;28;20053;-71
2021/07/12 02:19:32;;;;;;;70.00;52.78;;;20.70;99.90;;;20.96;75.23;101259.88;5009037;28;20065;-72
2021/07/12 02:22:02;;;;;;;69.57;51.85;;;20.70;99.90;;;20.57;75.23;101192.44;4993704;28;20408;-71
2021/07/12 02:24:48;;;;;;;66.32;51.00;;;20.70;99.90;;;20.95;75.48;101252.72;5008904;28;20547;-72
2021/07/12 02:27:19;;;;;;;65.15;50.80;;;20.60;99.90;;;20.96;75.51;101257.19;4992075;28;20058;-72
2021/07/12 02:29:49;;;;;;;62.67;49.67;;;20.60;99.90;;;20.81;75.90;101242.53;4992336;28;20046;-72
2021/07/12 02:32:21;;;;;;;66.25;51.88;;;20.50;99.90;;;20.92;75.86;101234.03;5008812;28;20046;-72
2021/07/12 02:34:53;;;;;;;68.88;52.28;;;20.60;99.90;;;20.96;75.77;101233.84;4993330;28;20050;-72
2021/07/12 02:37:27;;;;;;;69.32;52.65;;;20.60;99.90;;;20.97;75.81;101232.03;5008917;28;20050;-71
2021/07/12 02:39:57;;;;;;;67.75;51.25;;;20.70;99.90;;;20.91;75.96;101210.75;4993817;28;20054;-71
2021/07/12 02:42:28;;;;;;;68.35;51.60;;;20.70;99.90;;;20.98;76.03;101225.72;4992049;28;20082;-71
2021/07/12 02:44:59;;;;;;;72.22;52.88;;;20.70;99.90;;;20.96;76.13;101219.53;5011288;28;20565;-71
2021/07/12 02:47:28;;;;;;;68.63;51.70;;;20.70;99.90;;;21.02;76.04;101219.31;5012217;28;20050;-71
2021/07/12 02:49:58;;;;;;;70.25;53.58;;;20.70;99.90;;;21.00;76.06;101213.94;4996828;28;20052;-71
2021/07/12 02:52:34;;;;;;;70.55;52.28;;;20.70;99.90;;;21.01;76.21;101204.09;5012199;28;20054;-71
2021/07/12 02:55:03;;;;;;;71.20;54.53;;;20.70;99.90;;;20.75;76.28;101186.31;4995797;28;20458;-71
2021/07/12 02:57:33;;;;;;;70.47;52.53;;;20.70;99.90;;;20.89;76.51;101208.13;4995764;28;20077;-71
2021/07/12 03:00:08;;;;;;;71.47;54.85;;;20.60;99.90;;;20.54;77.35;101204.19;4996937;28;20109;-71
2021/07/12 03:02:38;;;;;;;72.13;54.15;;;20.40;99.90;;;20.32;78.46;101210.47;4997198;28;20038;-71
2021/07/12 03:05:12;;;;;;;75.28;54.90;;;20.10;99.90;;;20.26;79.30;101211.59;5011971;28;20078;-71
2021/07/12 03:07:46;;;;;;;76.50;55.17;;;20.00;99.90;;;20.10;79.61;101191.59;4996601;28;20492;-71
2021/07/12 03:10:20;;;;;;;72.38;52.65;;;20.00;99.90;;;20.33;79.63;101198.78;4995407;28;20492;-72
2021/07/12 03:12:52;;;;;;;77.25;58.10;;;20.00;99.90;;;19.76;79.50;101095.31;5011784;28;20053;-72
2021/07/12 03:15:32;;;;;;;78.50;56.03;;;20.00;99.90;;;20.35;79.46;101188.84;4995691;28;20051;-71
2021/07/12 03:18:05;;;;;;;74.63;54.03;;;20.00;99.90;;;20.44;79.57;101185.81;5011641;28;20046;-71
2021/07/12 03:20:38;;;;;;;73.68;55.15;;;20.10;99.90;;;19.87;79.31;101086.88;4996703;28;20117;-71
2021/07/12 03:23:13;;;;;;;72.80;56.15;;;20.10;99.90;;;20.46;79.33;101175.88;4996528;28;20097;-71
2021/07/12 03:25:49;;;;;;;75.68;55.17;;;20.20;99.90;;;20.46;79.15;101179.44;4996494;28;20072;-71
2021/07/12 03:28:19;;;;;;;75.90;57.55;;;20.20;99.90;;;20.26;79.27;101148.91;5011231;28;20058;-72
2021/07/12 03:30:49;;;;;;;76.43;55.88;;;20.20;99.90;;;20.07;80.40;101182.78;4995075;28;20559;-71
2021/07/12 03:33:22;;;;;;;77.40;59.03;;;19.90;99.90;;;20.02;81.18;101182.06;4996379;28;20042;-71
2021/07/12 03:35:55;;;;;;;74.55;55.00;;;19.80;99.90;;;20.13;80.92;101171.81;4995014;28;20101;-72
2021/07/12 03:38:25;;;;;;;75.97;57.88;;;19.80;99.90;;;20.11;80.88;101174.53;4996031;28;20038;-71
2021/07/12 03:40:54;;;;;;;79.90;58.00;;;19.80;99.90;;;20.01;81.58;101175.84;4995883;28;20488;-72
2021/07/12 03:43:24;;;;;;;78.22;56.70;;;19.70;99.90;;;19.93;81.79;101160.94;4994717;28;20109;-72
2021/07/12 03:45:57;;;;;;;74.20;54.13;;;19.70;99.90;;;19.88;82.19;101162.94;5011176;28;20081;-71
2021/07/12 03:48:39;;;;;;;81.25;57.47;;;19.70;99.90;;;19.73;82.72;101169.72;5011099;28;20074;-71
2021/07/12 03:51:16;;;;;;;82.25;57.10;;;19.50;99.90;;;19.68;83.34;101182.47;4996089;28;20042;-71
2021/07/12 03:53:46;;;;;;;83.85;59.13;;;19.40;99.90;;;19.73;83.75;101181.34;4995920;28;20134;-72
2021/07/12 03:56:15;;;;;;;82.18;57.88;;;19.40;99.90;;;19.61;83.82;101175.53;4995827;28;20050;-71
2021/07/12 03:58:43;;;;;;;82.03;59.17;;;19.30;99.90;;;19.48;84.40;101163.50;4995897;28;20081;-71
2021/07/12 04:01:19;;;;;;;80.18;57.33;;;19.30;99.90;;;18.89;84.53;101069.06;4996078;28;20042;-71
2021/07/12 04:03:48;;;;;;;77.88;56.95;;;19.20;99.90;;;19.30;85.55;101170.38;4995879;28;20129;-72
2021/07/12 04:06:18;;;;;;;84.15;58.28;;;19.10;99.90;;;18.97;85.71;101100.97;4995682;28;20046;-71
2021/07/12 04:08:46;;;;;;;78.93;57.97;;;19.10;99.90;;;19.25;85.96;101158.06;4995705;28;20050;-72
2021/07/12 04:11:17;;;;;;;79.40;57.45;;;19.10;99.90;;;19.25;86.20;101166.09;4995398;28;20043;-73
2021/07/12 04:13:47;;;;;;;79.38;58.33;;;19.00;99.90;;;19.24;86.66;101175.94;4995442;28;20050;-71
2021/07/12 04:16:15;;;;;;;79.68;57.50;;;19.00;99.90;;;19.27;87.02;101156.19;4995631;28;20054;-70
2021/07/12 04:18:44;;;;;;;82.03;56.72;;;19.00;99.90;;;19.37;86.90;101155.00;4995492;28;20495;-70
2021/07/12 04:21:14;;;;;;;86.13;57.90;;;19.10;99.90;;;19.46;86.43;101150.16;4995008;28;20042;-69
2021/07/12 04:23:44;;;;;;;81.78;58.03;;;19.20;99.90;;;19.51;86.05;101155.38;4995397;28;20127;-71
2021/07/12 04:26:12;;;;;;;80.10;55.87;;;19.20;99.90;;;19.47;86.17;101157.25;4995674;28;20097;-69
2021/07/12 04:28:40;;;;;;;85.30;57.83;;;19.20;99.90;;;19.28;86.92;101155.28;4995331;28;20544;-70
2021/07/12 04:31:09;;;;;;;80.43;55.78;;;19.10;99.90;;;19.27;87.08;101153.53;4995400;28;20108;-70
2021/07/12 04:33:37;;;;;;;80.47;57.70;;;19.10;99.90;;;19.24;87.72;101140.22;4995170;28;20050;-70
2021/07/12 04:36:06;;;;;;;83.95;59.00;;;19.00;99.90;;;19.35;87.28;101138.94;4995103;28;20073;-70
2021/07/12 04:38:35;;;;;;;78.55;57.50;;;19.10;99.90;;;19.34;87.35;101138.97;5010087;28;20050;-70
2021/07/12 04:41:05;;;;;;;75.10;55.80;;;19.10;99.90;;;19.34;87.25;101134.50;4993721;28;20137;-70
2021/07/12 04:43:33;;;;;;;83.70;56.43;;;19.10;99.90;;;19.33;87.25;101130.09;4995065;28;20050;-70
2021/07/12 04:46:02;;;;;;;82.15;57.08;;;19.10;99.90;;;19.42;87.24;101128.84;4993631;28;20054;-70
2021/07/12 04:48:33;;;;;;;80.15;57.80;;;19.20;99.90;;;19.28;87.68;101134.69;4994566;28;20066;-70
2021/07/12 04:51:01;;;;;;;81.35;57.25;;;19.10;99.90;;;19.29;87.96;101132.88;4994361;28;20056;-70
2021/07/12 04:53:30;;;;;;;80.55;58.38;;;19.10;99.90;;;19.34;87.99;101122.88;4994834;28;20096;-70
2021/07/12 04:55:58;;;;;;;78.78;56.72;;;19.10;99.90;;;19.50;87.42;101129.44;4994474;28;20459;-70
2021/07/12 04:58:30;;;;;;;78.55;55.83;;;19.20;99.90;;;19.55;87.21;101124.81;4994745;28;20054;-70
2021/07/12 05:00:59;;;;;;;75.22;54.97;;;19.20;99.90;;;19.51;86.99;101120.47;4994680;28;20440;-70
2021/07/12 05:03:32;;;;;;;73.85;55.40;;;19.30;99.90;;;19.44;86.64;101105.53;5009958;28;20054;-70
2021/07/12 05:06:01;;;;;;;78.50;55.70;;;19.30;99.90;;;19.54;86.73;101131.09;4994427;28;20053;-70
2021/07/12 05:08:30;;;;;;;73.10;54.28;;;19.30;99.90;;;19.51;87.26;101133.91;4994355;28;20054;-70
2021/07/12 05:10:58;;;;;;;75.13;55.47;;;19.30;99.90;;;19.51;87.46;101131.22;4994341;28;20034;-70
2021/07/12 05:13:30;;;;;;;72.90;54.72;;;19.30;99.90;;;19.40;88.12;101118.19;4994270;28;20108;-70
2021/07/12 05:15:58;;;;;;;71.47;54.25;;;19.10;99.90;;;19.31;89.02;101115.81;4994054;28;20527;-70
2021/07/12 05:18:27;;;;;;;73.45;53.28;;;19.10;99.90;;;19.48;89.00;101115.22;4994087;28;20484;-70
2021/07/12 05:20:56;;;;;;;68.88;51.75;;;19.10;99.90;;;19.46;88.50;101114.41;4994075;28;20140;-70
2021/07/12 05:23:24;;;;;;;74.05;51.17;;;19.10;99.90;;;19.68;88.15;101112.66;4994597;28;20096;-70
2021/07/12 05:25:53;;;;;;;70.18;52.33;;;19.30;99.90;;;19.75;87.24;101108.81;4994009;28;20120;-70
2021/07/12 05:28:21;;;;;;;66.43;51.00;;;19.50;99.90;;;19.77;86.89;101115.88;4993720;28;20496;-70
2021/07/12 05:30:51;;;;;;;64.35;50.47;;;19.50;99.90;;;19.71;87.32;101117.91;4993834;28;20381;-70
2021/07/12 05:33:20;;;;;;;62.85;48.60;;;19.40;99.90;;;19.73;87.28;101110.69;4994133;28;20476;-70
2021/07/12 05:35:48;;;;;;;62.65;47.67;;;19.40;99.90;;;19.61;87.69;101103.97;4994039;28;20054;-70
2021/07/12 05:38:17;;;;;;;64.85;49.10;;;19.30;99.90;;;19.66;87.73;101115.41;5009066;28;20459;-69
2021/07/12 05:40:45;;;;;;;60.55;47.85;;;19.30;99.90;;;19.67;87.19;101110.91;4993918;28;20069;-70
2021/07/12 05:43:14;;;;;;;61.60;47.42;;;19.30;99.90;;;19.57;88.59;101105.00;4992732;28;20074;-70
2021/07/12 05:45:43;;;;;;;63.55;45.88;;;19.20;99.90;;;19.70;88.19;101102.75;4993844;28;20077;-70
2021/07/12 05:48:13;;;;;;;56.88;45.53;;;19.30;99.90;;;19.72;87.25;101101.75;4993419;28;20042;-69
2021/07/12 05:50:42;;;;;;;59.78;47.28;;;19.40;99.90;;;19.45;87.66;101085.81;5008455;28;20050;-70
2021/07/12 05:53:10;;;;;;;56.40;44.20;;;19.30;99.90;;;19.56;88.14;101097.03;4993641;28;20077;-70
2021/07/12 05:55:38;;;;;;;58.03;45.60;;;19.30;99.90;;;19.82;88.70;101096.03;4993418;28;20050;-70
2021/07/12 05:58:07;;;;;;;58.33;44.05;;;19.40;99.90;;;19.92;87.62;101094.75;4993850;28;20110;-70
2021/07/12 06:00:36;;;;;;;53.50;44.45;;;19.50;99.90;;;19.79;86.76;101057.63;4994206;28;20054;-70
2021/07/12 06:03:04;;;;;;;57.38;43.60;;;19.60;99.90;;;19.83;86.42;101071.81;5008954;28;20042;-70
2021/07/12 06:05:34;;;;;;;53.05;41.72;;;19.70;99.90;;;20.02;86.02;101080.88;4992736;28;20086;-70
2021/07/12 06:08:04;;;;;;;52.90;40.75;;;19.70;99.90;;;19.69;86.36;101071.47;4994216;28;20088;-69
2021/07/12 06:10:32;;;;;;;52.42;41.95;;;19.60;99.90;;;19.94;85.46;101083.00;4993857;28;20042;-70
2021/07/12 06:13:01;;;;;;;51.63;41.15;;;19.70;99.90;;;19.93;85.82;101096.50;4993744;28;20134;-70
2021/07/12 06:15:29;;;;;;;50.97;40.70;;;19.70;99.90;;;20.13;85.25;101100.13;4993781;28;20061;-69
2021/07/12 06:17:58;;;;;;;51.38;40.90;;;19.80;99.90;;;19.96;85.15;101094.56;5008886;28;20054;-69
2021/07/12 06:20:27;;;;;;;50.05;41.85;;;19.70;99.90;;;20.23;85.09;101100.66;4997443;28;20050;-69
2021/07/12 06:22:57;;;;;;;49.30;40.72;;;19.80;99.90;;;20.14;85.03;101096.53;4997747;28;20045;-70
2021/07/12 06:25:25;;;;;;;49.03;39.67;;;19.80;99.90;;;20.38;84.99;101100.91;4997577;28;20050;-70
2021/07/12 06:27:54;;;;;;;50.90;39.65;;;20.00;99.90;;;20.22;83.95;101105.19;5012525;28;20078;-69
2021/07/12 06:30:22;;;;;;;57.60;41.65;;;20.00;99.90;;;20.04;85.35;101111.25;4996202;28;20099;-70
2021/07/12 06:32:50;;;;;;;51.08;41.70;;;19.80;99.90;;;20.41;85.01;101116.94;4997378;28;20120;-69
2021/07/12 06:35:19;;;;;;;49.30;42.53;;;20.00;99.90;;;20.55;83.55;101117.25;4997063;28;20492;-69
2021/07/12 06:37:48;;;;;;;48.55;39.80;;;20.20;99.90;;;20.53;83.72;101120.94;4997206;28;20396;-69
2021/07/12 06:40:19;;;;;;;49.50;40.65;;;20.20;99.90;;;20.63;82.93;101116.94;4997292;28;20049;-69
2021/07/12 06:42:47;;;;;;;48.22;40.25;;;20.30;99.90;;;20.12;83.14;101030.34;4997297;28;20174;-69
2021/07/12 06:45:16;;;;;;;49.70;40.83;;;20.30;99.90;;;20.32;83.30;101109.25;4995883;28;20050;-69
2021/07/12 06:47:44;;;;;;;48.15;40.45;;;20.10;99.90;;;20.57;83.49;101107.31;4995797;28;20050;-70
2021/07/12 06:50:14;;;;;;;48.35;39.78;;;20.30;99.90;;;20.68;82.82;101105.03;5012048;28;20042;-70
2021/07/12 06:52:43;;;;;;;46.43;39.80;;;20.30;99.90;;;20.78;81.87;101099.25;4996837;28;20082;-69
2021/07/12 06:55:13;;;;;;;45.50;38.95;;;20.50;99.90;;;20.49;83.27;101071.81;4996714;28;20077;-69
2021/07/12 06:57:42;;;;;;;44.72;39.15;;;20.30;99.90;;;20.92;82.10;101092.38;4995755;28;20046;-70
2021/07/12 07:00:12;;;;;;;46.33;38.72;;;20.50;99.90;;;21.15;81.96;101094.06;4996958;28;20451;-70
2021/07/12 07:02:58;;;;;;;43.75;38.85;;;20.70;99.90;;;21.10;80.78;101091.56;4995677;28;20051;-69
2021/07/12 07:05:28;;;;;;;46.00;38.42;;;20.80;99.90;;;21.03;80.43;101089.22;4995816;28;20499;-69
2021/07/12 07:08:04;;;;;;;47.25;39.00;;;20.70;99.90;;;21.07;80.70;101106.97;5011693;28;20054;-69
2021/07/12 07:10:47;;;;;;;43.90;37.45;;;20.70;99.90;;;21.01;79.90;101107.25;4995249;28;20047;-70
2021/07/12 07:13:17;;;;;;;43.95;36.50;;;20.80;99.90;;;21.07;79.87;101077.38;5011603;28;20491;-70
2021/07/12 07:15:46;;;;;;;38.13;33.55;;;20.80;99.90;;;21.22;80.30;101095.53;4996884;28;20058;-68
2021/07/12 07:18:15;;;;;;;41.15;36.50;;;20.80;99.90;;;21.39;79.41;101087.56;4996455;28;20085;-68
2021/07/12 07:20:44;;;;;;;40.83;36.20;;;21.00;99.90;;;21.39;78.98;101085.75;4996637;28;20053;-68
2021/07/12 07:23:12;;;;;;;41.55;36.22;;;21.10;99.90;;;21.54;78.66;101082.38;4996426;28;20047;-67
2021/07/12 07:25:41;;;;;;;42.13;35.30;;;21.20;99.90;;;21.40;78.63;101062.44;4996406;28;20411;-70
2021/07/12 07:28:10;;;;;;;41.20;35.00;;;21.20;99.90;;;21.70;78.13;101074.44;4996121;28;20064;-70
2021/07/12 07:30:40;;;;;;;39.58;34.08;;;21.30;99.90;;;21.49;77.96;101073.66;4994648;28;20096;-67
2021/07/12 07:33:09;;;;;;;41.80;35.50;;;21.30;99.90;;;21.55;78.39;101069.78;4996405;28;20054;-66
2021/07/12 07:35:38;;;;;;;35.95;32.05;;;21.30;99.90;;;21.38;77.38;101073.28;4996194;28;20034;-67
2021/07/12 07:38:07;;;;;;;38.22;32.63;;;21.20;99.90;;;21.36;77.65;101077.84;4996434;28;20104;-66
2021/07/12 07:40:36;;;;;;;38.75;31.33;;;21.00;99.90;;;21.59;77.26;101068.72;4995860;28;20447;-67
2021/07/12 07:43:05;;;;;;;36.38;31.70;;;21.20;99.90;;;21.62;77.03;101073.97;4996390;28;20101;-68
2021/07/12 07:45:33;;;;;;;35.47;31.52;;;21.30;99.90;;;21.68;77.10;101075.50;4996009;28;20137;-67
2021/07/12 07:48:04;;;;;;;35.05;30.70;;;21.40;99.90;;;21.67;75.21;101080.00;4995829;28;20039;-69
2021/07/12 07:50:36;;;;;;;36.85;31.05;;;21.40;99.90;;;21.55;75.60;101073.38;4996205;28;20046;-68
2021/07/12 07:53:05;;;;;;;34.47;30.77;;;21.30;99.90;;;21.60;75.81;101075.84;5010923;28;20542;-69
2021/07/12 07:55:34;;;;;;;33.05;29.45;;;21.30;99.90;;;21.36;76.52;101055.44;4995878;28;20047;-70
2021/07/12 07:58:03;;;;;;;33.03;29.45;;;21.20;99.90;;;21.69;77.01;101071.84;4995552;28;20069;-70
2021/07/12 08:00:32;;;;;;;34.80;30.20;;;21.30;99.90;;;21.96;76.00;101071.44;5010856;28;20054;-68
2021/07/12 08:03:00;;;;;;;33.75;30.15;;;21.50;99.90;;;21.89;75.49;101058.34;4995701;28;20331;-68
2021/07/12 08:05:30;;;;;;;35.25;31.25;;;21.60;99.90;;;22.06;75.60;101063.78;4995402;28;20121;-68
2021/07/12 08:07:59;;;;;;;32.65;29.27;;;21.70;99.90;;;22.01;75.30;101057.78;4995663;28;20058;-68
2021/07/12 08:10:30;;;;;;;39.42;30.90;;;21.70;99.90;;;21.99;74.38;101065.06;5010653;28;20461;-68
2021/07/12 08:12:58;;;;;;;35.55;29.10;;;21.70;99.90;;;22.12;74.95;101072.47;4995550;28;20141;-69
2021/07/12 08:15:27;;;;;;;32.15;28.27;;;21.70;99.90;;;22.24;73.89;101060.22;4995205;28;20046;-68
2021/07/12 08:17:55;;;;;;;32.75;28.33;;;21.80;99.90;;;22.39;74.11;101067.53;4995381;28;20046;-68
2021/07/12 08:20:24;;;;;;;31.92;28.58;;;22.00;99.90;;;22.28;73.74;101062.66;4995199;28;20057;-68
2021/07/12 08:22:55;;;;;;;30.25;26.85;;;22.00;99.90;;;22.27;72.50;101058.22;4995539;28;20042;-68
2021/07/12 08:25:24;;;;;;;30.75;27.48;;;21.90;99.90;;;22.33;73.72;101057.06;4995066;28;20042;-69
2021/07/12 08:27:53;;;;;;;32.20;28.90;;;22.00;99.90;;;22.35;73.57;101050.63;4994756;28;20408;-68
2021/07/12 08:30:22;;;;;;;30.75;27.30;;;22.00;99.90;;;22.47;73.35;101056.38;4995212;28;20097;-65
2021/07/12 08:32:51;;;;;;;31.80;28.58;;;22.10;99.90;;;22.44;73.34;101050.16;4994878;28;20373;-69
2021/07/12 08:35:19;;;;;;;29.35;26.27;;;22.10;99.90;;;22.59;74.39;101051.22;4995129;28;20459;-66
2021/07/12 08:37:50;;;;;;;28.73;25.83;;;22.30;99.90;;;22.62;72.19;101050.22;4995019;28;20050;-67
2021/07/12 08:40:24;;;;;;;30.35;26.52;;;22.30;99.90;;;22.78;72.25;101024.22;4994849;28;20047;-67
2021/07/12 08:42:54;;;;;;;26.38;23.67;;;22.50;99.90;;;22.88;71.77;101050.59;4994604;28;20057;-67
2021/07/12 08:45:24;;;;;;;29.02;25.00;;;22.60;99.90;;;22.85;72.54;101056.19;4994951;28;20057;-67
2021/07/12 08:47:54;;;;;;;27.00;23.98;;;22.50;99.90;;;23.00;71.59;101039.19;4995096;28;20054;-67
2021/07/12 08:50:25;;;;;;;25.15;22.40;;;22.70;99.90;;;23.18;71.55;101050.84;4994549;28;20132;-67
2021/07/12 08:52:55;;;;;;;23.10;20.80;;;22.80;99.90;;;23.08;70.15;101046.88;4995054;28;20039;-67
2021/07/12 08:55:25;;;;;;;24.45;20.65;;;22.80;99.90;;;23.25;69.28;101049.53;4994849;28;20050;-66
2021/07/12 08:58:00;;;;;;;23.92;21.38;;;22.90;99.90;;;23.51;67.72;101040.94;4994670;28;20396;-67
2021/07/12 09:00:46;;;;;;;24.63;21.92;;;23.20;99.90;;;23.73;67.98;101041.47;4994782;28;20050;-67
2021/07/12 09:03:27;;;;;;;20.75;18.65;;;23.40;99.90;;;23.77;67.00;101051.16;4994727;28;20050;-70
2021/07/12 09:06:06;;;;;;;20.00;17.98;;;23.50;99.90;;;23.76;67.64;101046.72;4993668;28;20050;-70
2021/07/12 09:08:47;;;;;;;22.45;18.80;;;23.50;99.90;;;24.01;67.15;101040.81;4994430;28;20050;-69
2021/07/12 09:11:26;;;;;;;19.73;16.45;;;23.60;99.90;;;24.14;65.97;101039.16;4994753;28;20116;-69
2021/07/12 09:13:59;;;;;;;18.85;16.88;;;23.80;99.90;;;24.21;65.98;101031.59;4994331;28;20496;-70
2021/07/12 09:16:43;;;;;;;21.40;19.10;;;23.90;99.90;;;24.18;65.26;101047.03;4994479;28;20056;-71
2021/07/12 09:19:23;;;;;;;17.65;14.73;;;23.90;99.90;;;23.95;63.08;101019.53;4994330;28;20042;-70
2021/07/12 09:21:56;;;;;;;14.88;13.38;;;23.80;99.90;;;24.27;63.73;101042.03;4994327;28;20116;-70
2021/07/12 09:24:29;;;;;;;17.35;15.55;;;23.90;99.90;;;24.60;61.63;101037.38;4994369;28;20077;-71
2021/07/12 09:27:06;;;;;;;17.05;15.35;;;24.20;99.90;;;24.56;63.79;101031.28;4994016;28;20042;-70
2021/07/12 09:29:38;;;;;;;14.93;13.38;;;24.20;99.90;;;24.62;62.92;101017.34;4994244;28;20047;-70
2021/07/12 09:32:09;;;;;;;13.98;12.57;;;24.30;99.90;;;24.17;61.64;101025.47;4993908;28;20067;-70
2021/07/12 09:34:39;;;;;;;14.50;13.00;;;24.10;99.90;;;24.06;62.43;101027.94;4994150;28;20076;-72
2021/07/12 09:37:11;;;;;;;14.07;12.68;;;23.80;99.90;;;24.26;61.37;101013.25;4993901;28;20049;-71
2021/07/12 09:39:41;;;;;;;14.20;12.80;;;23.90;99.90;;;24.04;60.49;101009.09;4994120;28;20154;-70
2021/07/12 09:42:14;;;;;;;12.05;10.88;;;23.80;99.90;;;24.30;62.21;101020.22;4993881;28;20068;-70
2021/07/12 09:44:45;;;;;;;12.52;11.23;;;23.90;99.90;;;24.31;60.55;101013.88;4994133;28;20046;-69
2021/07/12 09:47:19;;;;;;;11.68;10.30;;;24.10;99.90;;;24.33;61.69;101017.34;4993789;28;20101;-70
2021/07/12 09:49:48;;;;;;;10.85;9.85;;;24.00;99.90;;;24.25;61.71;101012.41;4993905;28;20050;-69
2021/07/12 09:52:19;;;;;;;10.05;9.13;;;24.00;99.90;;;24.34;62.15;101010.97;4993901;28;20062;-69
2021/07/12 09:54:49;;;;;;;11.82;9.68;;;24.00;99.90;;;24.36;60.49;101019.88;4994011;28;20092;-70
2021/07/12 09:57:21;;;;;;;10.82;9.70;;;24.00;99.90;;;24.33;60.79;101017.34;4994452;28;20081;-69
2021/07/12 09:59:58;;;;;;;12.73;8.50;;;23.90;99.90;;;24.16;60.27;101007.50;4993598;28;20518;-69
2021/07/12 10:02:29;;;;;;;9.98;7.78;;;23.80;99.90;;;24.27;60.49;100990.66;4993610;28;20385;-68
2021/07/12 10:05:00;;;;;;;9.13;8.23;;;23.90;99.90;;;24.44;61.73;100993.25;4993935;28;20093;-69
2021/07/12 10:07:30;;;;;;;11.48;8.57;;;24.10;99.90;;;24.43;60.97;101000.47;4993601;28;20081;-69
2021/07/12 10:10:01;;;;;;;9.30;7.95;;;24.10;99.90;;;24.68;61.52;100999.91;4994144;28;20069;-69
2021/07/12 10:12:30;;;;;;;;;;;24.30;99.90;;;24.71;58.83;100991.59;4994346;28;20096;-70
2021/07/12 10:14:59;;;;;;;8.70;7.82;;;24.40;99.90;;;24.37;58.47;100997.28;5008753;28;19921;-70
2021/07/12 10:17:28;;;;;;;8.05;6.80;;;24.20;99.90;;;24.27;61.04;100985.25;4993754;28;20054;-70
2021/07/12 10:19:57;;;;;;;9.90;6.35;;;23.90;99.90;;;24.25;60.12;100984.47;4993474;28;20084;-71
2021/07/12 10:22:26;;;;;;;10.32;7.28;;;23.90;99.90;;;24.56;60.88;100979.88;4993572;28;20093;-71